Nippon Maru II — JFMC — position and weather

sailwx.info

Track history (hours):
 
Tides and Currents Weather Stations Pressure Air Temp Water Temp Dewpoint Dewpoint Depression Visibility Wind Speed Wind Dir Waves Ship Positions

Nippon Maru II (Japan)

Build in 1984. Trains merchant marine cadets for Japan's National Institute for Sea Training.

Ship's website: http://www.kohkun.go.jp/en/ships/index.html

Last reported at 2020-Jul-09 20:00 UTC. Time now 2020-Jul-09 20:12 UTC.
Position N 34°41' E 135°12'.

Length 110.1 m; beam 13.8 m; draft 110.09 m.

Type: Other ship. MMSI: 431498000.

Date/timePositionNaut miles runAvg speedWind from/ knotsBaromVisibWave heightAir tempDewpointWater temp
2020-Jul-09 20:00N 34°41' E 135°12'0 0.0
2020-Jul-09 16:00N 34°41' E 135°12'0 0.0
2020-Jul-09 15:00N 34°41' E 135°12'0 0.0
2020-Jul-09 14:00N 34°41' E 135°12'0 0.0
2020-Jul-09 12:24N 34°41' E 135°12'0 0.0
2020-Jul-09 12:00N 34°41' E 135°12'0 0.0
2020-Jul-09 11:30N 34°41' E 135°12'0 0.0
2020-Jul-09 10:30N 34°41' E 135°12'0 0.0
2020-Jul-09 09:00N 34°41' E 135°12'0 0.0
2020-Jul-09 08:30N 34°41' E 135°12'0 0.0
2020-Jul-09 06:59N 34°41' E 135°12'0 0.0
2020-Jul-09 05:59N 34°41' E 135°12'0 0.0
2020-Jul-09 02:59N 34°41' E 135°12'0 0.0
2020-Jul-08 21:59N 34°41' E 135°12'0 0.0
2020-Jul-08 20:29N 34°41' E 135°12'0 0.0
2020-Jul-08 17:29N 34°41' E 135°12'0 0.0
2020-Jul-08 16:59N 34°41' E 135°12'0 0.0
2020-Jul-08 15:29N 34°41' E 135°12'0 0.0
2020-Jul-08 13:59N 34°41' E 135°12'0 0.0
2020-Jul-08 13:29N 34°41' E 135°12'0 0.0
2020-Jul-08 12:47N 34°41' E 135°12'0 0.0
2020-Jul-08 12:23N 34°41' E 135°12'0 0.0
2020-Jul-08 10:59N 34°41' E 135°12'0 0.0
2020-Jul-08 05:10N 34°41' E 135°12'0 0.0
2020-Jul-08 02:58N 34°41' E 135°12'0 0.0
2020-Jul-07 22:58N 34°41' E 135°12'0 0.0
2020-Jul-07 21:58N 34°41' E 135°12'0 0.0
2020-Jul-07 20:28N 34°41' E 135°12'0 0.0
2020-Jul-07 18:28N 34°41' E 135°12'0 0.0
2020-Jul-07 15:58N 34°41' E 135°12'0 0.0
2020-Jul-07 14:52N 34°41' E 135°12'0 0.0
2020-Jul-07 13:52N 34°41' E 135°12'0 0.0
2020-Jul-07 12:58N 34°41' E 135°12'0 0.0
2020-Jul-07 11:16N 34°41' E 135°12'0 0.0
2020-Jul-07 10:58N 34°41' E 135°12'0 0.0
2020-Jul-07 07:22N 34°41' E 135°12'0 0.0
2020-Jul-07 05:28N 34°41' E 135°12'0 0.0
2020-Jul-07 04:58N 34°41' E 135°12'0 0.0
2020-Jul-07 03:25N 34°41' E 135°12'0 0.0
2020-Jul-07 02:55N 34°41' E 135°12'0 0.0
2020-Jul-06 23:49N 34°41' E 135°12'0 0.0
2020-Jul-06 22:25N 34°41' E 135°12'0 0.0
2020-Jul-06 18:55N 34°41' E 135°12'0 0.0
2020-Jul-06 18:19N 34°41' E 135°12'0 0.0
2020-Jul-06 17:19N 34°41' E 135°12'0 0.0
2020-Jul-06 16:55N 34°41' E 135°12'0 0.0
2020-Jul-06 11:55N 34°41' E 135°12'0 0.0
2020-Jul-06 10:55N 34°41' E 135°12'0 0.0
2020-Jul-06 09:55N 34°41' E 135°12'0 0.0
2020-Jul-06 09:19N 34°41' E 135°12'0 0.0
2020-Jul-06 08:25N 34°41' E 135°12'0 0.0
2020-Jul-06 07:55N 34°41' E 135°12'0 0.0
2020-Jul-06 04:25N 34°41' E 135°12'0 0.0
2020-Jul-06 02:49N 34°41' E 135°12'0 0.0
2020-Jul-06 01:55N 34°41' E 135°12'0 0.0
2020-Jul-06 01:19N 34°41' E 135°12'0 0.0
2020-Jul-05 21:55N 34°41' E 135°12'0 0.0
2020-Jul-05 19:49N 34°41' E 135°12'0 0.0
2020-Jul-05 15:55N 34°41' E 135°12'0 0.0
2020-Jul-05 15:25N 34°41' E 135°12'0 0.0
2020-Jul-05 12:19N 34°41' E 135°12'0 0.0
2020-Jul-05 10:25N 34°41' E 135°12'0 0.0
2020-Jul-05 05:25N 34°41' E 135°12'0 0.0
2020-Jul-05 03:55N 34°41' E 135°12'0 0.0
2020-Jul-05 02:55N 34°41' E 135°12'0 0.0
2020-Jul-05 01:55N 34°41' E 135°12'12 3.5
2020-Jul-04 22:31N 34°30' E 135°06'10 4.0
2020-Jul-04 20:00N 34°21' E 135°02'4 8.2
2020-Jul-04 19:30N 34°17' E 134°59'8 8.0
2020-Jul-04 18:28N 34°09' E 134°59'240 7.1
2020-Jul-03 08:41N 35°06' E 139°43'510.9
2020-Jul-03 08:12N 35°11' E 139°46'13 7.9
2020-Jul-03 06:30N 35°23' E 139°40'11 4.4
2020-Jul-03 04:00N 35°30' E 139°51'4 3.5
2020-Jul-03 02:59N 35°32' E 139°54'510.0
2020-Jul-03 02:30N 35°28' E 139°51'11 1.9
2020-Jul-02 20:29N 35°23' E 139°38'0 0.0
2020-Jul-02 19:26N 35°23' E 139°38'0 0.0
2020-Jul-02 18:29N 35°23' E 139°38'0 0.0
2020-Jul-02 15:59N 35°23' E 139°38'0 0.0
2020-Jul-02 14:29N 35°23' E 139°38'0 0.0
2020-Jul-02 11:30N 35°23' E 139°38'0 0.0
2020-Jul-02 11:00N 35°23' E 139°38'0 0.0
2020-Jul-02 10:27N 35°23' E 139°38'0 0.0
2020-Jul-02 09:30N 35°23' E 139°38'0 0.0
2020-Jul-02 09:00N 35°23' E 139°38'0 0.0
2020-Jul-02 06:30N 35°23' E 139°38'0 0.0
2020-Jul-02 04:00N 35°23' E 139°38'0 0.0
2020-Jul-02 03:27N 35°23' E 139°38'0 0.0
2020-Jul-02 02:30N 35°23' E 139°38'0 0.0
2020-Jul-02 01:27N 35°23' E 139°38'0 0.0
2020-Jul-01 23:30N 35°23' E 139°38'0 0.0
2020-Jul-01 18:30N 35°23' E 139°38'0 0.0
2020-Jul-01 15:59N 35°23' E 139°38'0 0.0
2020-Jul-01 13:29N 35°23' E 139°38'0 0.0
2020-Jul-01 05:26N 35°23' E 139°38'0 0.0
2020-Jul-01 03:59N 35°23' E 139°38'0 0.0
2020-Jul-01 02:29N 35°23' E 139°38'0 0.0
2020-Jun-30 23:59N 35°23' E 139°38'0 0.0
2020-Jun-30 21:29N 35°23' E 139°38'0 0.0
2020-Jun-30 18:25N 35°23' E 139°38'0 0.0
2020-Jun-30 17:55N 35°23' E 139°38'0 0.0
2020-Jun-30 17:28N 35°23' E 139°38'0 0.0
2020-Jun-30 16:28N 35°23' E 139°38'0 0.0
2020-Jun-30 15:28N 35°23' E 139°38'0 0.0
2020-Jun-30 14:28N 35°23' E 139°38'0 0.0
2020-Jun-30 13:28N 35°23' E 139°38'0 0.0
2020-Jun-30 11:55N 35°23' E 139°38'0 0.0
2020-Jun-30 07:28N 35°23' E 139°38'0 0.0
2020-Jun-30 06:28N 35°23' E 139°38'0 0.0
2020-Jun-30 03:28N 35°23' E 139°38'0 0.0
2020-Jun-30 02:28N 35°23' E 139°38'0 0.0
2020-Jun-30 00:28N 35°23' E 139°38'0 0.0
2020-Jun-29 22:58N 35°23' E 139°38'0 0.0
2020-Jun-29 22:28N 35°23' E 139°38'0 0.0
2020-Jun-29 21:28N 35°23' E 139°38'  
Track history (hours):
 
Tides and Currents Weather Stations Pressure Air Temp Water Temp Dewpoint Dewpoint Depression Visibility Wind Speed Wind Dir Waves Ship Positions

Nippon Maru II (Japan)

Build in 1984. Trains merchant marine cadets for Japan's National Institute for Sea Training.

Ship's website: http://www.kohkun.go.jp/en/ships/index.html

Last reported at 2020-Jul-09 20:00 UTC. Time now 2020-Jul-09 20:12 UTC.
Position N 34°41' E 135°12'.

Length 110.1 m; beam 13.8 m; draft 110.09 m.

Type: Other ship. MMSI: 431498000.

Date/timePositionNaut miles runAvg speedWind from/ knotsBaromVisibWave heightAir tempDewpointWater temp
2020-Jul-09 20:00N 34°41' E 135°12'0 0.0
2020-Jul-09 16:00N 34°41' E 135°12'0 0.0
2020-Jul-09 15:00N 34°41' E 135°12'0 0.0
2020-Jul-09 14:00N 34°41' E 135°12'0 0.0
2020-Jul-09 12:24N 34°41' E 135°12'0 0.0
2020-Jul-09 12:00N 34°41' E 135°12'0 0.0
2020-Jul-09 11:30N 34°41' E 135°12'0 0.0
2020-Jul-09 10:30N 34°41' E 135°12'0 0.0
2020-Jul-09 09:00N 34°41' E 135°12'0 0.0
2020-Jul-09 08:30N 34°41' E 135°12'0 0.0
2020-Jul-09 06:59N 34°41' E 135°12'0 0.0
2020-Jul-09 05:59N 34°41' E 135°12'0 0.0
2020-Jul-09 02:59N 34°41' E 135°12'0 0.0
2020-Jul-08 21:59N 34°41' E 135°12'0 0.0
2020-Jul-08 20:29N 34°41' E 135°12'0 0.0
2020-Jul-08 17:29N 34°41' E 135°12'0 0.0
2020-Jul-08 16:59N 34°41' E 135°12'0 0.0
2020-Jul-08 15:29N 34°41' E 135°12'0 0.0
2020-Jul-08 13:59N 34°41' E 135°12'0 0.0
2020-Jul-08 13:29N 34°41' E 135°12'0 0.0
2020-Jul-08 12:47N 34°41' E 135°12'0 0.0
2020-Jul-08 12:23N 34°41' E 135°12'0 0.0
2020-Jul-08 10:59N 34°41' E 135°12'0 0.0
2020-Jul-08 05:10N 34°41' E 135°12'0 0.0
2020-Jul-08 02:58N 34°41' E 135°12'0 0.0
2020-Jul-07 22:58N 34°41' E 135°12'0 0.0
2020-Jul-07 21:58N 34°41' E 135°12'0 0.0
2020-Jul-07 20:28N 34°41' E 135°12'0 0.0
2020-Jul-07 18:28N 34°41' E 135°12'0 0.0
2020-Jul-07 15:58N 34°41' E 135°12'0 0.0
2020-Jul-07 14:52N 34°41' E 135°12'0 0.0
2020-Jul-07 13:52N 34°41' E 135°12'0 0.0
2020-Jul-07 12:58N 34°41' E 135°12'0 0.0
2020-Jul-07 11:16N 34°41' E 135°12'0 0.0
2020-Jul-07 10:58N 34°41' E 135°12'0 0.0
2020-Jul-07 07:22N 34°41' E 135°12'0 0.0
2020-Jul-07 05:28N 34°41' E 135°12'0 0.0
2020-Jul-07 04:58N 34°41' E 135°12'0 0.0
2020-Jul-07 03:25N 34°41' E 135°12'0 0.0
2020-Jul-07 02:55N 34°41' E 135°12'0 0.0
2020-Jul-06 23:49N 34°41' E 135°12'0 0.0
2020-Jul-06 22:25N 34°41' E 135°12'0 0.0
2020-Jul-06 18:55N 34°41' E 135°12'0 0.0
2020-Jul-06 18:19N 34°41' E 135°12'0 0.0
2020-Jul-06 17:19N 34°41' E 135°12'0 0.0
2020-Jul-06 16:55N 34°41' E 135°12'0 0.0
2020-Jul-06 11:55N 34°41' E 135°12'0 0.0
2020-Jul-06 10:55N 34°41' E 135°12'0 0.0
2020-Jul-06 09:55N 34°41' E 135°12'0 0.0
2020-Jul-06 09:19N 34°41' E 135°12'0 0.0
2020-Jul-06 08:25N 34°41' E 135°12'0 0.0
2020-Jul-06 07:55N 34°41' E 135°12'0 0.0
2020-Jul-06 04:25N 34°41' E 135°12'0 0.0
2020-Jul-06 02:49N 34°41' E 135°12'0 0.0
2020-Jul-06 01:55N 34°41' E 135°12'0 0.0
2020-Jul-06 01:19N 34°41' E 135°12'0 0.0
2020-Jul-05 21:55N 34°41' E 135°12'0 0.0
2020-Jul-05 19:49N 34°41' E 135°12'0 0.0
2020-Jul-05 15:55N 34°41' E 135°12'0 0.0
2020-Jul-05 15:25N 34°41' E 135°12'0 0.0
2020-Jul-05 12:19N 34°41' E 135°12'0 0.0
2020-Jul-05 10:25N 34°41' E 135°12'0 0.0
2020-Jul-05 05:25N 34°41' E 135°12'0 0.0
2020-Jul-05 03:55N 34°41' E 135°12'0 0.0
2020-Jul-05 02:55N 34°41' E 135°12'0 0.0
2020-Jul-05 01:55N 34°41' E 135°12'12 3.5
2020-Jul-04 22:31N 34°30' E 135°06'10 4.0
2020-Jul-04 20:00N 34°21' E 135°02'4 8.2
2020-Jul-04 19:30N 34°17' E 134°59'8 8.0
2020-Jul-04 18:28N 34°09' E 134°59'240 7.1
2020-Jul-03 08:41N 35°06' E 139°43'510.9
2020-Jul-03 08:12N 35°11' E 139°46'13 7.9
2020-Jul-03 06:30N 35°23' E 139°40'11 4.4
2020-Jul-03 04:00N 35°30' E 139°51'4 3.5
2020-Jul-03 02:59N 35°32' E 139°54'510.0
2020-Jul-03 02:30N 35°28' E 139°51'11 1.9
2020-Jul-02 20:29N 35°23' E 139°38'0 0.0
2020-Jul-02 19:26N 35°23' E 139°38'0 0.0
2020-Jul-02 18:29N 35°23' E 139°38'0 0.0
2020-Jul-02 15:59N 35°23' E 139°38'0 0.0
2020-Jul-02 14:29N 35°23' E 139°38'0 0.0
2020-Jul-02 11:30N 35°23' E 139°38'0 0.0
2020-Jul-02 11:00N 35°23' E 139°38'0 0.0
2020-Jul-02 10:27N 35°23' E 139°38'0 0.0
2020-Jul-02 09:30N 35°23' E 139°38'0 0.0
2020-Jul-02 09:00N 35°23' E 139°38'0 0.0
2020-Jul-02 06:30N 35°23' E 139°38'0 0.0
2020-Jul-02 04:00N 35°23' E 139°38'0 0.0
2020-Jul-02 03:27N 35°23' E 139°38'0 0.0
2020-Jul-02 02:30N 35°23' E 139°38'0 0.0
2020-Jul-02 01:27N 35°23' E 139°38'0 0.0
2020-Jul-01 23:30N 35°23' E 139°38'0 0.0
2020-Jul-01 18:30N 35°23' E 139°38'0 0.0
2020-Jul-01 15:59N 35°23' E 139°38'0 0.0
2020-Jul-01 13:29N 35°23' E 139°38'0 0.0
2020-Jul-01 05:26N 35°23' E 139°38'0 0.0
2020-Jul-01 03:59N 35°23' E 139°38'0 0.0
2020-Jul-01 02:29N 35°23' E 139°38'0 0.0
2020-Jun-30 23:59N 35°23' E 139°38'0 0.0
2020-Jun-30 21:29N 35°23' E 139°38'0 0.0
2020-Jun-30 18:25N 35°23' E 139°38'0 0.0
2020-Jun-30 17:55N 35°23' E 139°38'0 0.0
2020-Jun-30 17:28N 35°23' E 139°38'0 0.0
2020-Jun-30 16:28N 35°23' E 139°38'0 0.0
2020-Jun-30 15:28N 35°23' E 139°38'0 0.0
2020-Jun-30 14:28N 35°23' E 139°38'0 0.0
2020-Jun-30 13:28N 35°23' E 139°38'0 0.0
2020-Jun-30 11:55N 35°23' E 139°38'0 0.0
2020-Jun-30 07:28N 35°23' E 139°38'0 0.0
2020-Jun-30 06:28N 35°23' E 139°38'0 0.0
2020-Jun-30 03:28N 35°23' E 139°38'0 0.0
2020-Jun-30 02:28N 35°23' E 139°38'0 0.0
2020-Jun-30 00:28N 35°23' E 139°38'0 0.0
2020-Jun-29 22:58N 35°23' E 139°38'0 0.0
2020-Jun-29 22:28N 35°23' E 139°38'0 0.0
2020-Jun-29 21:28N 35°23' E 139°38'  

Dump ship's entire track history